createdAt,value
2022-11-16T00:01:06.579Z,68.65
2022-11-16T00:03:35.774Z,70.84
2022-11-16T00:06:06.213Z,73.35
2022-11-16T00:08:40.668Z,68.82
2022-11-16T00:11:12.120Z,67.71
2022-11-16T00:13:42.728Z,67.91
2022-11-16T00:16:16.652Z,67.06
2022-11-16T00:18:45.616Z,66.53
2022-11-16T00:21:13.694Z,67.57
2022-11-16T00:23:41.870Z,67.02
2022-11-16T00:26:13.066Z,67.02
2022-11-16T00:28:41.253Z,67.14
2022-11-16T00:31:11.011Z,67.22
2022-11-16T00:33:40.276Z,67.08
2022-11-16T00:36:11.190Z,66.46
2022-11-16T00:38:42.070Z,66.51
2022-11-16T00:41:10.583Z,66.32
2022-11-16T00:43:38.860Z,65.50
2022-11-16T00:46:07.141Z,65.72
2022-11-16T00:48:36.771Z,65.14
2022-11-16T00:51:05.340Z,65.42
2022-11-16T00:53:33.926Z,65.32
2022-11-16T00:56:02.412Z,66.90
2022-11-16T00:58:31.528Z,68.97
2022-11-16T01:01:08.390Z,67.19
2022-11-16T01:03:36.707Z,66.74
2022-11-16T01:06:08.474Z,66.47
2022-11-16T01:08:38.554Z,66.28
2022-11-16T01:11:08.195Z,71.09
2022-11-16T01:13:36.547Z,67.13
2022-11-16T01:16:05.031Z,66.93
2022-11-16T01:18:33.600Z,68.01
2022-11-16T01:21:02.114Z,67.38
2022-11-16T01:23:30.391Z,66.09
2022-11-16T01:25:59.586Z,66.17
2022-11-16T01:28:31.672Z,66.08
2022-11-16T01:31:00.452Z,66.03
2022-11-16T01:33:30.569Z,65.97
2022-11-16T01:35:59.260Z,65.66
2022-11-16T01:38:30.022Z,65.86
2022-11-16T01:40:58.378Z,66.11
2022-11-16T01:43:26.681Z,65.98
2022-11-16T01:45:58.003Z,66.03
2022-11-16T01:48:29.280Z,66.21
2022-11-16T01:50:58.050Z,65.70
2022-11-16T01:53:26.332Z,65.35
2022-11-16T01:55:55.331Z,65.05
2022-11-16T01:58:26.270Z,65.31
2022-11-16T02:00:54.409Z,64.88
2022-11-16T02:03:22.830Z,66.02
2022-11-16T02:06:05.724Z,65.58
2022-11-16T02:08:57.403Z,66.69
2022-11-16T02:11:31.632Z,67.59
2022-11-16T02:14:17.989Z,68.34
2022-11-16T02:16:45.969Z,69.98
2022-11-16T02:19:52.134Z,74.17
2022-11-16T02:23:00.334Z,77.25
2022-11-16T02:25:46.625Z,79.60
2022-11-16T02:28:14.675Z,81.62
2022-11-16T02:30:49.336Z,83.35
2022-11-16T02:33:22.697Z,84.28
2022-11-16T02:35:56.831Z,85.19
2022-11-16T02:38:32.141Z,85.30
2022-11-16T02:41:10.671Z,86.72
2022-11-16T02:43:43.501Z,86.56
2022-11-16T02:46:36.258Z,87.17
2022-11-16T02:49:11.249Z,86.47
2022-11-16T02:51:41.314Z,87.25
2022-11-16T02:54:18.187Z,87.48
2022-11-16T02:56:49.038Z,87.46
2022-11-16T02:59:17.883Z,88.10
2022-11-16T03:02:01.924Z,87.23
2022-11-16T03:04:42.287Z,88.63
2022-11-16T03:07:15.311Z,89.01
2022-11-16T03:09:45.706Z,89.58
2022-11-16T03:12:23.607Z,89.38
2022-11-16T03:14:59.772Z,89.91
2022-11-16T03:17:37.388Z,90.34
2022-11-16T03:20:13.241Z,90.35
2022-11-16T03:22:45.616Z,90.03
2022-11-16T03:25:18.400Z,90.25
2022-11-16T03:28:08.491Z,90.01
2022-11-16T03:30:42.989Z,90.32
2022-11-16T03:33:29.509Z,90.05
2022-11-16T03:36:38.097Z,89.20
2022-11-16T03:39:12.115Z,89.86
2022-11-16T03:41:44.480Z,90.30
2022-11-16T03:44:15.734Z,91.01
2022-11-16T03:46:45.656Z,91.66
2022-11-16T03:49:13.927Z,91.33
2022-11-16T03:51:42.617Z,91.50
2022-11-16T03:54:10.699Z,92.40
2022-11-16T03:56:38.769Z,92.12
2022-11-16T03:59:07.060Z,91.53
2022-11-16T04:01:37.394Z,91.59
2022-11-16T04:04:08.908Z,89.51
2022-11-16T04:06:37.315Z,87.59
2022-11-16T04:09:05.802Z,87.05
2022-11-16T04:11:34.082Z,86.96
2022-11-16T04:14:06.663Z,86.68
2022-11-16T04:16:37.707Z,87.00
2022-11-16T04:19:06.196Z,86.91
2022-11-16T04:21:40.918Z,86.85
2022-11-16T04:24:25.891Z,87.90
2022-11-16T04:26:59.143Z,88.06
2022-11-16T04:29:27.660Z,89.17
2022-11-16T04:31:56.246Z,89.37
2022-11-16T04:34:24.939Z,90.74
2022-11-16T04:36:54.339Z,90.52
2022-11-16T04:39:22.489Z,89.45
2022-11-16T04:41:50.618Z,88.90
2022-11-16T04:44:19.229Z,89.13
2022-11-16T04:46:47.780Z,89.79
2022-11-16T04:49:16.465Z,90.16
2022-11-16T04:51:44.644Z,90.40
2022-11-16T04:54:13.172Z,90.53
2022-11-16T04:56:41.842Z,90.37
2022-11-16T04:59:10.734Z,90.83
2022-11-16T05:01:39.281Z,91.26
2022-11-16T05:04:08.023Z,91.18
2022-11-16T05:06:36.171Z,91.06
2022-11-16T05:09:04.450Z,91.70
2022-11-16T05:11:32.589Z,91.97
2022-11-16T05:14:00.914Z,92.44
2022-11-16T05:16:29.119Z,91.71
2022-11-16T05:18:57.888Z,92.39
2022-11-16T05:21:25.977Z,92.78
2022-11-16T05:23:54.208Z,92.18
2022-11-16T05:26:22.408Z,92.40
2022-11-16T05:28:50.533Z,92.35
2022-11-16T05:31:18.673Z,91.31
2022-11-16T05:33:47.166Z,92.43
2022-11-16T05:36:15.353Z,92.41
2022-11-16T05:38:43.587Z,90.81
2022-11-16T05:41:11.967Z,90.62
2022-11-16T05:43:40.161Z,90.14
2022-11-16T05:46:08.334Z,89.88
2022-11-16T05:48:37.303Z,89.70
2022-11-16T05:51:05.785Z,89.91
2022-11-16T05:53:33.899Z,90.02
2022-11-16T05:56:02.103Z,90.15
2022-11-16T05:58:30.319Z,90.69
2022-11-16T06:00:58.653Z,91.72
2022-11-16T06:03:29.901Z,91.65
2022-11-16T06:05:58.642Z,92.12
2022-11-16T06:08:26.907Z,91.18
2022-11-16T06:10:55.112Z,91.64
2022-11-16T06:13:23.257Z,91.81
2022-11-16T06:15:51.434Z,92.05
2022-11-16T06:18:19.812Z,92.06
2022-11-16T06:20:48.620Z,91.66
2022-11-16T06:23:16.877Z,91.46
2022-11-16T06:25:45.550Z,91.31
2022-11-16T06:28:13.865Z,91.90
2022-11-16T06:30:42.011Z,90.87
2022-11-16T06:33:10.283Z,90.47
2022-11-16T06:35:38.513Z,89.91
2022-11-16T06:38:06.842Z,89.74
2022-11-16T06:40:35.632Z,90.13
2022-11-16T06:43:04.330Z,89.99
2022-11-16T06:45:32.353Z,90.56
2022-11-16T06:48:00.626Z,90.02
2022-11-16T06:50:29.469Z,89.35
2022-11-16T06:52:57.500Z,89.48
2022-11-16T06:55:25.803Z,89.75
2022-11-16T06:57:53.995Z,89.76
2022-11-16T07:00:22.205Z,90.04
2022-11-16T07:02:50.889Z,90.05
2022-11-16T07:05:19.041Z,89.36
2022-11-16T07:07:47.697Z,89.91
2022-11-16T07:10:15.919Z,90.20
2022-11-16T07:12:44.161Z,91.29
2022-11-16T07:15:12.345Z,91.47
2022-11-16T07:17:40.908Z,91.20
2022-11-16T07:20:10.133Z,90.89
2022-11-16T07:22:38.278Z,90.10
2022-11-16T07:25:07.376Z,89.78
2022-11-16T07:27:35.671Z,89.84
2022-11-16T07:30:04.572Z,90.10
2022-11-16T07:32:32.837Z,89.91
2022-11-16T07:35:01.094Z,89.70
2022-11-16T07:37:29.278Z,89.85
2022-11-16T07:39:57.552Z,89.77
2022-11-16T07:42:25.842Z,89.09
2022-11-16T07:44:54.220Z,89.49
2022-11-16T07:47:22.609Z,89.10
2022-11-16T07:49:53.950Z,88.77
2022-11-16T07:52:22.182Z,89.17
2022-11-16T07:54:50.346Z,88.21
2022-11-16T07:57:18.397Z,88.48
2022-11-16T07:59:46.538Z,88.79
2022-11-16T08:02:14.686Z,88.24
2022-11-16T08:04:43.223Z,88.30
2022-11-16T08:07:11.479Z,88.88
2022-11-16T08:09:40.167Z,88.39
2022-11-16T08:12:08.326Z,87.85
2022-11-16T08:14:36.461Z,87.25
2022-11-16T08:17:04.980Z,86.93
2022-11-16T08:19:33.116Z,86.58
2022-11-16T08:22:01.289Z,86.73
2022-11-16T08:24:29.645Z,86.09
2022-11-16T08:26:58.191Z,85.61
2022-11-16T08:29:27.128Z,85.58
2022-11-16T08:31:55.777Z,85.25
2022-11-16T08:34:27.229Z,84.90
2022-11-16T08:36:55.709Z,84.00
2022-11-16T08:39:23.996Z,83.55
2022-11-16T08:41:52.139Z,83.25
2022-11-16T08:44:20.751Z,83.22
2022-11-16T08:46:49.213Z,83.05
2022-11-16T08:49:17.805Z,82.50
2022-11-16T08:51:46.087Z,82.73
2022-11-16T08:54:14.668Z,82.37
2022-11-16T08:56:42.848Z,82.27
2022-11-16T08:59:11.025Z,81.67
2022-11-16T09:01:40.193Z,83.14
2022-11-16T09:04:08.405Z,81.21
2022-11-16T09:06:36.793Z,80.43
2022-11-16T09:09:05.380Z,79.96
2022-11-16T09:11:34.172Z,79.84
2022-11-16T09:14:02.555Z,79.11
2022-11-16T09:16:30.936Z,77.39
2022-11-16T09:18:59.242Z,76.82
2022-11-16T09:21:30.629Z,76.41
2022-11-16T09:23:59.007Z,76.35
2022-11-16T09:26:29.047Z,75.60
2022-11-16T09:29:01.196Z,74.81
2022-11-16T09:31:32.062Z,74.71
2022-11-16T09:34:00.657Z,74.52
2022-11-16T09:36:30.227Z,73.47
2022-11-16T09:42:05.845Z,72.03
2022-11-16T09:44:52.941Z,71.59
2022-11-16T09:47:25.213Z,71.52
2022-11-16T09:50:01.524Z,70.67
2022-11-16T09:52:44.591Z,71.44
2022-11-16T09:55:32.626Z,70.81
2022-11-16T09:58:06.538Z,71.27
2022-11-16T10:00:36.304Z,71.33
2022-11-16T10:03:07.514Z,69.83
2022-11-16T10:05:43.954Z,69.14
2022-11-16T10:08:18.707Z,68.40
2022-11-16T10:11:04.179Z,67.78
2022-11-16T10:13:38.388Z,68.23
2022-11-16T10:16:27.443Z,64.59
2022-11-16T10:19:04.623Z,63.11
2022-11-16T10:21:41.607Z,63.28
2022-11-16T10:24:28.312Z,62.75
2022-11-16T10:26:59.520Z,62.71
2022-11-16T10:29:46.668Z,62.53
2022-11-16T10:32:26.908Z,60.69
2022-11-16T10:35:17.448Z,60.54
2022-11-16T10:37:49.261Z,61.03
2022-11-16T10:40:18.253Z,60.40
2022-11-16T10:43:16.521Z,59.98
2022-11-16T10:45:57.283Z,61.31
2022-11-16T10:48:37.574Z,60.89
2022-11-16T10:51:10.106Z,59.91
2022-11-16T10:53:43.591Z,59.86
2022-11-16T10:56:37.431Z,59.91
2022-11-16T10:59:08.114Z,59.42
2022-11-16T11:01:40.355Z,59.96
2022-11-16T11:04:18.383Z,59.48
2022-11-16T11:06:53.843Z,60.00
2022-11-16T11:09:36.641Z,59.60
2022-11-16T11:12:22.614Z,59.03
2022-11-16T11:14:58.510Z,58.00
2022-11-16T11:17:27.502Z,57.50
2022-11-16T11:20:02.101Z,58.83
2022-11-16T11:22:36.113Z,57.00
2022-11-16T11:25:18.926Z,55.55
2022-11-16T11:27:48.128Z,54.43
2022-11-16T11:30:21.488Z,53.04
2022-11-16T11:32:50.933Z,53.27
2022-11-16T11:35:27.549Z,50.43
2022-11-16T11:38:03.353Z,50.85
2022-11-16T11:40:35.831Z,50.82
2022-11-16T11:43:06.279Z,49.32
2022-11-16T11:45:54.702Z,48.71
2022-11-16T11:48:23.211Z,49.30
2022-11-16T11:51:14.288Z,48.94
2022-11-16T11:53:56.305Z,47.58
2022-11-16T11:56:26.351Z,46.39
2022-11-16T11:58:56.775Z,45.87
2022-11-16T12:01:45.898Z,44.94
2022-11-16T12:04:48.173Z,44.48
2022-11-16T12:07:23.258Z,43.96
2022-11-16T12:10:05.579Z,44.68
2022-11-16T12:13:00.527Z,43.59
2022-11-16T12:15:50.246Z,43.94
2022-11-16T12:18:33.972Z,44.66
2022-11-16T12:21:07.983Z,45.51
2022-11-16T12:23:55.192Z,44.45
2022-11-16T12:26:37.698Z,45.24
2022-11-16T12:29:18.363Z,44.41
2022-11-16T12:31:55.775Z,44.90
2022-11-16T12:34:51.264Z,43.30
2022-11-16T12:37:46.263Z,45.39
2022-11-16T12:40:30.691Z,44.84
2022-11-16T12:43:14.943Z,45.14
2022-11-16T12:46:11.153Z,44.68
2022-11-16T12:49:01.749Z,44.83
2022-11-16T12:51:37.378Z,45.08
2022-11-16T12:54:13.461Z,43.64
2022-11-16T12:56:53.509Z,43.44
2022-11-16T12:59:51.545Z,43.79
2022-11-16T13:02:38.563Z,43.50
2022-11-16T13:05:21.285Z,43.49
2022-11-16T13:08:05.722Z,44.37
2022-11-16T13:10:37.083Z,44.59
2022-11-16T13:13:35.500Z,44.49
2022-11-16T13:16:02.296Z,46.17
2022-11-16T13:18:33.230Z,45.58
2022-11-16T13:21:11.840Z,44.91
2022-11-16T13:24:20.998Z,45.79
2022-11-16T13:27:29.149Z,46.00
2022-11-16T13:30:21.496Z,47.15
2022-11-16T13:33:32.942Z,46.45
2022-11-16T13:36:36.323Z,45.65
2022-11-16T13:39:07.396Z,46.11
2022-11-16T13:41:38.532Z,46.87
2022-11-16T13:44:28.794Z,46.17
2022-11-16T13:47:04.473Z,46.75
2022-11-16T13:49:37.115Z,46.81
2022-11-16T13:52:23.156Z,46.96
2022-11-16T13:54:57.775Z,49.00
2022-11-16T13:57:34.418Z,46.94
2022-11-16T14:00:04.153Z,47.10
2022-11-16T14:02:40.286Z,46.81
2022-11-16T14:05:30.562Z,46.63
2022-11-16T14:07:59.309Z,46.50
2022-11-16T14:10:34.113Z,45.86
2022-11-16T14:13:19.437Z,48.70
2022-11-16T14:16:16.970Z,47.00
2022-11-16T14:18:48.010Z,46.68
2022-11-16T14:21:36.486Z,46.65
2022-11-16T14:24:34.036Z,47.25
2022-11-16T14:27:46.329Z,46.84
2022-11-16T14:30:20.244Z,47.36
2022-11-16T14:32:52.195Z,47.33
2022-11-16T14:35:28.772Z,47.00
2022-11-16T14:38:04.529Z,46.90
2022-11-16T14:40:58.911Z,46.84
2022-11-16T14:43:49.662Z,47.71
2022-11-16T14:46:33.058Z,47.40
2022-11-16T14:49:02.513Z,46.82
2022-11-16T14:51:36.992Z,47.72
2022-11-16T14:54:20.153Z,46.43
2022-11-16T14:56:58.672Z,46.34
2022-11-16T14:59:31.065Z,45.46
2022-11-16T15:02:10.889Z,46.08
2022-11-16T15:04:39.541Z,47.87
2022-11-16T15:07:08.281Z,45.58
2022-11-16T15:09:40.701Z,45.14
2022-11-16T15:12:17.677Z,44.93
2022-11-16T15:14:53.041Z,45.43
2022-11-16T15:17:30.120Z,48.12
2022-11-16T15:20:14.455Z,45.20
2022-11-16T15:22:51.390Z,45.23
2022-11-16T15:25:31.995Z,45.23
2022-11-16T15:28:07.039Z,44.89
2022-11-16T15:30:38.109Z,45.22
2022-11-16T15:33:14.885Z,45.52
2022-11-16T15:35:43.270Z,46.21
2022-11-16T15:38:27.086Z,46.79
2022-11-16T15:41:01.232Z,46.69
2022-11-16T15:43:45.355Z,48.99
2022-11-16T15:46:26.329Z,46.97
2022-11-16T15:48:55.372Z,47.28
2022-11-16T15:51:24.325Z,47.98
2022-11-16T15:53:54.856Z,48.32
2022-11-16T15:56:25.917Z,49.64
2022-11-16T15:58:56.488Z,48.92
2022-11-16T16:01:25.995Z,49.67
2022-11-16T16:04:06.603Z,49.03
2022-11-16T16:06:54.696Z,53.00
2022-11-16T16:09:28.863Z,49.85
2022-11-16T16:12:20.566Z,49.70
2022-11-16T16:14:51.206Z,50.34
2022-11-16T16:17:28.384Z,50.13
2022-11-16T16:19:59.848Z,51.40
2022-11-16T16:22:31.385Z,50.76
2022-11-16T16:25:00.307Z,50.90
2022-11-16T16:27:30.309Z,51.08
2022-11-16T16:30:03.192Z,50.69
2022-11-16T16:32:33.938Z,51.89
2022-11-16T16:35:07.785Z,51.80
2022-11-16T16:37:36.224Z,51.75
2022-11-16T16:40:05.239Z,52.12
2022-11-16T16:42:33.498Z,51.50
2022-11-16T16:45:02.284Z,52.55
2022-11-16T16:47:31.500Z,51.94
2022-11-16T16:49:59.978Z,51.76
2022-11-16T16:52:28.262Z,52.05
2022-11-16T16:54:56.541Z,52.16
2022-11-16T16:57:25.126Z,52.07
2022-11-16T16:59:53.308Z,53.51
2022-11-16T17:02:23.692Z,52.60
2022-11-16T17:04:52.301Z,56.85
2022-11-16T17:07:21.628Z,54.58
2022-11-16T17:09:50.063Z,53.14
2022-11-16T17:12:18.707Z,52.92
2022-11-16T17:14:47.427Z,52.54
2022-11-16T17:17:15.932Z,52.70
2022-11-16T17:19:44.484Z,52.94
2022-11-16T17:22:14.119Z,52.67
2022-11-16T17:24:42.488Z,52.75
2022-11-16T17:27:11.771Z,52.48
2022-11-16T17:29:40.144Z,52.41
2022-11-16T17:32:08.630Z,52.60
2022-11-16T17:34:37.322Z,52.66
2022-11-16T17:37:05.705Z,52.66
2022-11-16T17:39:34.192Z,53.28
2022-11-16T17:42:05.138Z,53.03
2022-11-16T17:44:33.822Z,55.02
2022-11-16T17:47:02.344Z,55.44
2022-11-16T17:49:30.689Z,56.90
2022-11-16T17:51:59.396Z,56.41
2022-11-16T17:54:27.762Z,58.14
2022-11-16T17:56:56.246Z,55.87
2022-11-16T17:59:29.818Z,55.70
2022-11-16T18:01:58.847Z,56.07
2022-11-16T18:04:27.439Z,56.23
2022-11-16T18:06:55.877Z,56.18
2022-11-16T18:09:25.638Z,56.50
2022-11-16T18:11:54.020Z,56.95
2022-11-16T18:14:22.396Z,57.13
2022-11-16T18:16:50.881Z,57.54
2022-11-16T18:19:19.688Z,57.95
2022-11-16T18:21:49.490Z,57.97
2022-11-16T18:24:18.310Z,58.12
2022-11-16T18:26:46.876Z,58.58
2022-11-16T18:29:15.217Z,58.79
2022-11-16T18:31:44.044Z,59.25
2022-11-16T18:34:14.511Z,59.74
2022-11-16T18:36:45.549Z,62.17
2022-11-16T18:39:14.208Z,60.64
2022-11-16T18:41:50.093Z,59.91
2022-11-16T18:44:23.284Z,60.46
2022-11-16T18:46:51.739Z,59.71
2022-11-16T18:49:20.246Z,62.93
2022-11-16T18:51:48.415Z,61.34
2022-11-16T18:54:17.073Z,59.65
2022-11-16T18:56:45.276Z,59.52
2022-11-16T18:59:15.092Z,60.36
2022-11-16T19:01:43.572Z,59.67
2022-11-16T19:04:11.856Z,60.85
2022-11-16T19:06:40.132Z,62.85
2022-11-16T19:09:08.619Z,59.78
2022-11-16T19:11:36.902Z,59.56
2022-11-16T19:14:05.179Z,59.94
2022-11-16T19:16:34.386Z,59.80
2022-11-16T19:19:02.872Z,60.13
2022-11-16T19:21:31.867Z,58.96
2022-11-16T19:24:00.111Z,58.45
2022-11-16T19:26:28.333Z,57.43
2022-11-16T19:28:56.775Z,57.22
2022-11-16T19:31:27.446Z,56.60
2022-11-16T19:34:07.165Z,56.70
2022-11-16T19:36:37.083Z,57.04
2022-11-16T19:39:06.302Z,57.23
2022-11-16T19:41:34.693Z,57.07
2022-11-16T19:44:03.149Z,56.66
2022-11-16T19:46:34.684Z,56.49
2022-11-16T19:49:03.321Z,56.14
2022-11-16T19:51:33.657Z,56.34
2022-11-16T19:54:03.058Z,57.82
2022-11-16T19:56:31.759Z,56.66
2022-11-16T19:59:00.231Z,56.64
2022-11-16T20:01:28.961Z,56.61
2022-11-16T20:03:59.908Z,56.27
2022-11-16T20:06:34.014Z,56.35
2022-11-16T20:09:05.395Z,56.56
2022-11-16T20:11:34.223Z,56.11
2022-11-16T20:14:06.414Z,56.49
2022-11-16T20:16:39.243Z,60.57
2022-11-16T20:19:09.412Z,56.82
2022-11-16T20:21:43.255Z,56.48
2022-11-16T20:24:14.981Z,56.47
2022-11-16T20:26:45.753Z,56.10
2022-11-16T20:29:16.041Z,56.38
2022-11-16T20:31:45.120Z,56.44
2022-11-16T20:34:15.972Z,58.81
2022-11-16T20:36:47.118Z,56.54
2022-11-16T20:39:20.508Z,56.26
2022-11-16T20:41:49.108Z,56.93
2022-11-16T20:44:19.105Z,56.95
2022-11-16T20:46:47.601Z,57.90
2022-11-16T20:49:16.491Z,58.93
2022-11-16T20:51:44.888Z,64.07
2022-11-16T20:54:13.359Z,58.73
2022-11-16T20:56:41.678Z,58.06
2022-11-16T20:59:10.433Z,57.76
2022-11-16T21:01:38.998Z,57.87
2022-11-16T21:04:07.401Z,59.47
2022-11-16T21:06:35.817Z,58.96
2022-11-16T21:09:04.727Z,58.65
2022-11-16T21:11:33.894Z,58.30
2022-11-16T21:14:02.179Z,58.37
2022-11-16T21:16:31.777Z,58.51
2022-11-16T21:19:00.781Z,58.66
2022-11-16T21:21:29.667Z,59.07
2022-11-16T21:23:58.303Z,59.03
2022-11-16T21:26:32.436Z,59.35
2022-11-16T21:29:02.547Z,59.16
2022-11-16T21:31:33.806Z,58.95
2022-11-16T21:34:02.687Z,58.82
2022-11-16T21:36:32.446Z,58.78
2022-11-16T21:39:01.759Z,58.74
2022-11-16T21:41:31.196Z,58.82
2022-11-16T21:43:59.474Z,58.46
2022-11-16T21:46:28.145Z,58.60
2022-11-16T21:48:56.922Z,59.01
2022-11-16T21:51:27.285Z,59.01
2022-11-16T21:53:55.740Z,60.25
2022-11-16T21:56:25.488Z,59.04
2022-11-16T21:58:54.350Z,59.59
2022-11-16T22:01:23.967Z,59.41
2022-11-16T22:03:52.549Z,59.45
2022-11-16T22:06:20.617Z,59.69
2022-11-16T22:08:49.255Z,63.05
2022-11-16T22:11:18.409Z,60.01
2022-11-16T22:13:46.592Z,60.47
2022-11-16T22:16:16.403Z,60.48
2022-11-16T22:18:44.792Z,60.52
2022-11-16T22:21:13.679Z,60.29
2022-11-16T22:23:42.071Z,61.14
2022-11-16T22:26:12.785Z,60.20
2022-11-16T22:28:41.897Z,60.31
2022-11-16T22:31:14.960Z,60.04
2022-11-16T22:33:43.377Z,59.88
2022-11-16T22:36:11.768Z,59.65
2022-11-16T22:38:40.135Z,59.30
2022-11-16T22:41:09.446Z,59.35
2022-11-16T22:43:38.126Z,58.99
2022-11-16T22:46:06.972Z,59.29
2022-11-16T22:48:40.212Z,59.54
2022-11-16T22:51:11.672Z,59.63
2022-11-16T22:53:39.957Z,59.31
2022-11-16T22:56:10.199Z,59.56
2022-11-16T22:58:39.787Z,59.98
2022-11-16T23:01:09.245Z,59.17
2022-11-16T23:03:38.772Z,59.09
2022-11-16T23:06:07.598Z,58.93
2022-11-16T23:08:37.011Z,59.07
2022-11-16T23:11:12.288Z,59.52
2022-11-16T23:13:41.479Z,59.30
2022-11-16T23:16:10.677Z,59.40
2022-11-16T23:18:39.056Z,59.19
2022-11-16T23:21:07.436Z,59.64
2022-11-16T23:23:36.112Z,59.31
2022-11-16T23:26:12.291Z,59.70
2022-11-16T23:28:42.305Z,59.94
2022-11-16T23:31:10.683Z,59.95
2022-11-16T23:33:38.856Z,59.57
2022-11-16T23:36:07.537Z,60.04
2022-11-16T23:38:35.825Z,59.98
2022-11-16T23:41:05.026Z,59.65
2022-11-16T23:43:33.808Z,59.71
2022-11-16T23:46:02.311Z,59.77
2022-11-16T23:48:31.708Z,59.92
2022-11-16T23:50:59.885Z,60.16
2022-11-16T23:53:28.164Z,59.81
2022-11-16T23:56:05.713Z,60.16
2022-11-16T23:58:34.545Z,59.91
